createdAt,value
2023-03-29T00:02:00.951Z,6.30
2023-03-29T00:04:27.836Z,6.30
2023-03-29T00:06:54.904Z,6.30
2023-03-29T00:09:21.747Z,6.20
2023-03-29T00:11:48.399Z,6.00
2023-03-29T00:14:15.196Z,6.00
2023-03-29T00:16:42.188Z,5.90
2023-03-29T00:19:09.075Z,5.90
2023-03-29T00:21:35.780Z,6.00
2023-03-29T00:24:02.445Z,6.00
2023-03-29T00:26:29.076Z,5.90
2023-03-29T00:28:55.880Z,6.00
2023-03-29T00:31:22.614Z,6.00
2023-03-29T00:33:49.309Z,5.90
2023-03-29T00:36:16.189Z,6.00
2023-03-29T00:38:43.086Z,6.00
2023-03-29T00:41:09.825Z,5.90
2023-03-29T00:43:55.414Z,6.00
2023-03-29T00:46:22.696Z,6.00
2023-03-29T00:48:51.634Z,6.00
2023-03-29T00:51:19.541Z,6.00
2023-03-29T00:53:49.125Z,5.90
2023-03-29T00:56:19.992Z,6.00
2023-03-29T00:59:04.047Z,6.00
2023-03-29T01:01:42.434Z,6.00
2023-03-29T01:04:18.045Z,6.00
2023-03-29T01:06:56.166Z,5.90
2023-03-29T01:09:23.920Z,5.90
2023-03-29T01:11:55.643Z,5.80
2023-03-29T01:14:28.446Z,5.80
2023-03-29T01:16:55.346Z,5.80
2023-03-29T01:19:25.056Z,5.80
2023-03-29T01:21:54.931Z,5.80
2023-03-29T01:24:38.059Z,5.80
2023-03-29T01:27:23.529Z,5.80
2023-03-29T01:29:54.110Z,5.80
2023-03-29T01:32:23.351Z,5.80
2023-03-29T01:34:52.790Z,5.80
2023-03-29T01:37:37.555Z,5.70
2023-03-29T01:40:06.124Z,5.70
2023-03-29T01:42:51.377Z,5.60
2023-03-29T01:45:17.963Z,5.60
2023-03-29T01:47:50.693Z,5.60
2023-03-29T01:50:29.450Z,5.60
2023-03-29T01:52:56.413Z,5.70
2023-03-29T01:55:24.874Z,5.80
2023-03-29T01:57:54.105Z,5.80
2023-03-29T02:00:25.919Z,5.80
2023-03-29T02:02:54.170Z,5.80
2023-03-29T02:05:22.958Z,5.80
2023-03-29T02:07:50.575Z,5.80
2023-03-29T02:10:17.516Z,5.80
2023-03-29T02:12:44.308Z,5.70
2023-03-29T02:15:12.310Z,5.80
2023-03-29T02:17:39.144Z,5.70
2023-03-29T02:20:14.931Z,5.70
2023-03-29T02:22:45.734Z,5.60
2023-03-29T02:25:12.958Z,5.50
2023-03-29T02:27:39.731Z,5.50
2023-03-29T02:30:08.101Z,5.40
2023-03-29T02:33:00.827Z,5.30
2023-03-29T02:35:38.533Z,5.30
2023-03-29T02:38:07.844Z,5.40
2023-03-29T02:40:35.349Z,5.50
2023-03-29T02:43:03.183Z,5.50
2023-03-29T02:45:30.110Z,5.50
2023-03-29T02:47:58.492Z,5.70
2023-03-29T02:50:26.996Z,5.70
2023-03-29T02:52:55.171Z,5.70
2023-03-29T02:55:23.555Z,5.80
2023-03-29T02:57:50.230Z,5.80
2023-03-29T03:00:18.827Z,5.80
2023-03-29T03:02:46.735Z,5.90
2023-03-29T03:05:13.811Z,5.80
2023-03-29T03:07:40.623Z,5.80
2023-03-29T03:10:08.302Z,5.80
2023-03-29T03:12:35.021Z,5.70
2023-03-29T03:15:01.868Z,5.70
2023-03-29T03:17:28.592Z,5.60
2023-03-29T03:19:55.245Z,5.50
2023-03-29T03:22:21.893Z,5.50
2023-03-29T03:24:49.283Z,5.60
2023-03-29T03:27:16.596Z,5.50
2023-03-29T03:29:44.035Z,5.40
2023-03-29T03:32:12.398Z,5.40
2023-03-29T03:34:39.003Z,5.40
2023-03-29T03:37:05.573Z,5.40
2023-03-29T03:39:32.634Z,5.50
2023-03-29T03:41:59.237Z,5.50
2023-03-29T03:44:25.967Z,5.50
2023-03-29T03:46:52.617Z,5.50
2023-03-29T03:49:19.366Z,5.40
2023-03-29T03:51:46.358Z,5.50
2023-03-29T03:54:13.078Z,5.50
2023-03-29T03:56:39.849Z,5.50
2023-03-29T03:59:07.202Z,5.60
2023-03-29T04:01:35.302Z,5.60
2023-03-29T04:04:02.070Z,5.60
2023-03-29T04:06:30.673Z,5.60
2023-03-29T04:08:57.872Z,5.70
2023-03-29T04:11:24.584Z,5.70
2023-03-29T04:13:51.673Z,5.70
2023-03-29T04:16:18.311Z,5.80
2023-03-29T04:18:45.212Z,5.90
2023-03-29T04:21:12.020Z,5.90
2023-03-29T04:23:38.678Z,5.90
2023-03-29T04:26:05.410Z,5.90
2023-03-29T04:28:32.209Z,5.90
2023-03-29T04:30:58.859Z,5.90
2023-03-29T04:33:25.543Z,6.00
2023-03-29T04:35:52.632Z,5.90
2023-03-29T04:38:23.365Z,6.00
2023-03-29T04:40:50.380Z,6.00
2023-03-29T04:43:17.057Z,5.90
2023-03-29T04:45:43.632Z,6.00
2023-03-29T04:48:10.735Z,6.00
2023-03-29T04:50:37.549Z,6.00
2023-03-29T04:53:04.214Z,6.00
2023-03-29T04:55:30.841Z,6.00
2023-03-29T04:57:57.519Z,6.00
2023-03-29T05:00:29.762Z,6.00
2023-03-29T05:02:57.870Z,6.00
2023-03-29T05:05:24.778Z,5.90
2023-03-29T05:07:51.502Z,5.90
2023-03-29T05:10:18.258Z,6.00
2023-03-29T05:12:44.988Z,5.90
2023-03-29T05:15:11.760Z,6.00
2023-03-29T05:17:38.487Z,6.00
2023-03-29T05:20:11.769Z,6.00
2023-03-29T05:22:39.029Z,6.00
2023-03-29T05:25:06.027Z,6.00
2023-03-29T05:27:33.503Z,6.00
2023-03-29T05:30:01.225Z,6.10
2023-03-29T05:32:28.073Z,6.10
2023-03-29T05:34:54.776Z,6.10
2023-03-29T05:37:21.488Z,6.10
2023-03-29T05:39:49.609Z,6.20
2023-03-29T05:42:18.465Z,6.20
2023-03-29T05:44:45.078Z,6.20
2023-03-29T05:47:11.999Z,6.30
2023-03-29T05:49:38.740Z,6.30
2023-03-29T05:52:06.760Z,6.30
2023-03-29T05:54:33.435Z,6.40
2023-03-29T05:57:00.219Z,6.40
2023-03-29T05:59:29.658Z,6.40
2023-03-29T06:01:56.625Z,6.50
2023-03-29T06:04:24.583Z,6.50
2023-03-29T06:06:53.072Z,6.60
2023-03-29T06:09:19.968Z,6.60
2023-03-29T06:11:47.716Z,6.70
2023-03-29T06:14:14.652Z,6.70
2023-03-29T06:16:42.796Z,6.80
2023-03-29T06:19:09.693Z,6.90
2023-03-29T06:21:36.474Z,6.90
2023-03-29T06:24:04.096Z,7.00
2023-03-29T06:26:31.344Z,7.00
2023-03-29T06:28:58.229Z,7.10
2023-03-29T06:31:25.152Z,7.20
2023-03-29T06:33:51.884Z,7.20
2023-03-29T06:36:20.148Z,7.30
2023-03-29T06:38:47.122Z,7.40
2023-03-29T06:41:14.914Z,7.40
2023-03-29T06:43:41.939Z,7.50
2023-03-29T06:46:12.051Z,7.50
2023-03-29T06:48:39.314Z,7.60
2023-03-29T06:51:07.578Z,7.70
2023-03-29T06:53:34.824Z,7.80
2023-03-29T06:56:05.460Z,7.90
2023-03-29T06:58:32.575Z,8.00
2023-03-29T07:01:02.767Z,8.20
2023-03-29T07:03:30.026Z,8.20
2023-03-29T07:06:02.787Z,8.40
2023-03-29T07:08:31.637Z,8.60
2023-03-29T07:10:59.299Z,8.70
2023-03-29T07:13:26.360Z,8.90
2023-03-29T07:15:53.393Z,9.00
2023-03-29T07:18:20.345Z,9.20
2023-03-29T07:20:48.403Z,9.40
2023-03-29T07:23:15.410Z,9.30
2023-03-29T07:25:42.140Z,9.50
2023-03-29T07:28:09.220Z,9.50
2023-03-29T07:30:37.287Z,9.60
2023-03-29T07:33:04.483Z,9.70
2023-03-29T07:35:31.311Z,9.80
2023-03-29T07:37:58.634Z,9.80
2023-03-29T07:40:26.291Z,9.90
2023-03-29T07:42:54.570Z,10.00
2023-03-29T07:45:26.887Z,10.10
2023-03-29T07:47:58.411Z,10.10
2023-03-29T07:50:25.724Z,10.10
2023-03-29T07:52:52.767Z,10.30
2023-03-29T07:55:19.855Z,10.40
2023-03-29T07:57:46.529Z,10.50
2023-03-29T08:00:16.864Z,10.60
2023-03-29T08:02:44.660Z,10.70
2023-03-29T08:05:12.932Z,10.80
2023-03-29T08:07:40.997Z,10.80
2023-03-29T08:10:09.302Z,11.00
2023-03-29T08:12:37.288Z,11.20
2023-03-29T08:15:05.513Z,11.30
2023-03-29T08:17:32.539Z,11.50
2023-03-29T08:19:59.287Z,11.70
2023-03-29T08:22:26.013Z,11.80
2023-03-29T08:24:53.018Z,11.80
2023-03-29T08:27:19.903Z,11.90
2023-03-29T08:29:46.702Z,12.00
2023-03-29T08:32:13.427Z,12.10
2023-03-29T08:34:40.093Z,12.10
2023-03-29T08:37:06.920Z,12.20
2023-03-29T08:39:33.661Z,12.20
2023-03-29T08:42:00.401Z,12.30
2023-03-29T08:44:30.048Z,12.20
2023-03-29T08:47:05.113Z,12.00
2023-03-29T08:49:31.846Z,12.10
2023-03-29T08:52:01.321Z,12.20
2023-03-29T08:54:29.514Z,12.10
2023-03-29T08:57:02.162Z,12.10
2023-03-29T08:59:33.194Z,12.30
2023-03-29T09:02:01.373Z,12.30
2023-03-29T09:04:29.474Z,12.50
2023-03-29T09:06:56.287Z,12.60
2023-03-29T09:09:24.023Z,12.60
2023-03-29T09:12:11.543Z,12.60
2023-03-29T09:14:44.018Z,12.90
2023-03-29T09:17:16.971Z,12.80
2023-03-29T09:19:46.623Z,12.90
2023-03-29T09:22:23.319Z,13.00
2023-03-29T09:24:56.394Z,13.10
2023-03-29T09:27:42.800Z,13.20
2023-03-29T09:30:16.492Z,13.40
2023-03-29T09:32:49.132Z,13.50
2023-03-29T09:35:21.681Z,13.60
2023-03-29T09:37:50.262Z,13.80
2023-03-29T09:40:20.255Z,14.10
2023-03-29T09:42:49.458Z,14.20
2023-03-29T09:45:16.791Z,14.40
2023-03-29T09:47:46.997Z,14.60
2023-03-29T09:50:29.695Z,14.60
2023-03-29T09:52:58.275Z,14.70
2023-03-29T09:55:29.491Z,14.70
2023-03-29T09:57:59.678Z,14.40
2023-03-29T10:00:26.914Z,14.60
2023-03-29T10:02:54.915Z,14.70
2023-03-29T10:05:24.854Z,14.90
2023-03-29T10:07:53.134Z,14.90
2023-03-29T10:10:31.183Z,14.80
2023-03-29T10:13:24.198Z,15.00
2023-03-29T10:16:08.336Z,15.10
2023-03-29T10:18:42.695Z,15.20
2023-03-29T10:21:12.405Z,15.30
2023-03-29T10:23:40.287Z,15.40
2023-03-29T10:26:11.806Z,15.60
2023-03-29T10:28:39.416Z,15.40
2023-03-29T10:31:08.422Z,15.40
2023-03-29T10:33:36.356Z,15.50
2023-03-29T10:36:05.604Z,15.50
2023-03-29T10:38:34.962Z,15.60
2023-03-29T10:41:10.565Z,15.50
2023-03-29T10:43:45.544Z,15.80
2023-03-29T10:46:19.907Z,15.80
2023-03-29T10:48:58.066Z,15.60
2023-03-29T10:51:27.969Z,15.50
2023-03-29T10:53:56.438Z,15.40
2023-03-29T10:56:33.376Z,15.50
2023-03-29T10:59:09.579Z,15.50
2023-03-29T11:01:56.602Z,15.20
2023-03-29T11:04:23.870Z,15.00
2023-03-29T11:07:09.703Z,15.20
2023-03-29T11:09:55.937Z,15.30
2023-03-29T11:12:29.944Z,15.60
2023-03-29T11:15:09.943Z,15.80
2023-03-29T11:17:52.825Z,16.00
2023-03-29T11:20:22.441Z,16.30
2023-03-29T11:22:53.662Z,16.50
2023-03-29T11:25:53.767Z,16.70
2023-03-29T11:28:23.827Z,16.70
2023-03-29T11:31:11.071Z,17.40
2023-03-29T11:33:38.152Z,17.60
2023-03-29T11:36:21.358Z,18.10
2023-03-29T11:39:11.537Z,18.50
2023-03-29T11:41:40.584Z,18.20
2023-03-29T11:44:14.190Z,18.10
2023-03-29T11:46:44.438Z,18.30
2023-03-29T11:49:17.404Z,18.20
2023-03-29T11:51:46.703Z,18.40
2023-03-29T11:54:25.479Z,18.80
2023-03-29T11:56:56.220Z,19.20
2023-03-29T11:59:31.552Z,19.00
2023-03-29T12:02:21.465Z,19.00
2023-03-29T12:04:52.863Z,18.80
2023-03-29T12:07:24.333Z,19.10
2023-03-29T12:09:53.872Z,19.10
2023-03-29T12:12:24.749Z,19.20
2023-03-29T12:15:11.426Z,19.10
2023-03-29T12:17:42.043Z,19.30
2023-03-29T12:20:23.517Z,19.20
2023-03-29T12:22:51.156Z,19.10
2023-03-29T12:25:23.244Z,18.00
2023-03-29T12:27:56.488Z,17.70
2023-03-29T12:30:23.846Z,17.70
2023-03-29T12:33:15.920Z,17.40
2023-03-29T12:35:49.104Z,17.10
2023-03-29T12:38:25.306Z,17.10
2023-03-29T12:41:16.563Z,16.80
2023-03-29T12:43:44.816Z,16.80
2023-03-29T12:46:20.435Z,16.70
2023-03-29T12:48:50.974Z,16.40
2023-03-29T12:51:19.745Z,16.40
2023-03-29T12:53:50.644Z,16.70
2023-03-29T12:56:19.731Z,16.70
2023-03-29T12:58:49.906Z,16.80
2023-03-29T13:01:23.488Z,16.70
2023-03-29T13:03:52.188Z,16.60
2023-03-29T13:06:27.956Z,16.30
2023-03-29T13:09:17.899Z,16.30
2023-03-29T13:11:45.643Z,16.30
2023-03-29T13:14:14.823Z,16.30
2023-03-29T13:16:41.892Z,16.00
2023-03-29T13:19:11.782Z,16.00
2023-03-29T13:21:48.038Z,16.00
2023-03-29T13:24:29.938Z,15.60
2023-03-29T13:27:06.907Z,15.50
2023-03-29T13:29:42.647Z,15.50
2023-03-29T13:32:18.345Z,15.50
2023-03-29T13:34:48.355Z,15.50
2023-03-29T13:37:30.051Z,15.50
2023-03-29T13:39:56.988Z,15.50
2023-03-29T13:42:24.074Z,15.70
2023-03-29T13:44:50.908Z,15.80
2023-03-29T13:47:33.187Z,16.00
2023-03-29T13:50:01.032Z,16.00
2023-03-29T13:52:29.978Z,15.80
2023-03-29T13:55:03.084Z,15.80
2023-03-29T13:57:53.555Z,15.90
2023-03-29T14:00:25.353Z,15.80
2023-03-29T14:02:54.843Z,15.70
2023-03-29T14:05:24.552Z,15.60
2023-03-29T14:07:53.125Z,15.80
2023-03-29T14:10:25.936Z,15.70
2023-03-29T14:12:53.662Z,15.80
2023-03-29T14:15:24.667Z,15.90
2023-03-29T14:18:00.264Z,15.90
2023-03-29T14:20:27.939Z,16.10
2023-03-29T14:22:54.721Z,16.00
2023-03-29T14:25:22.908Z,15.80
2023-03-29T14:27:49.943Z,15.80
2023-03-29T14:30:27.492Z,15.60
2023-03-29T14:32:54.676Z,15.40
2023-03-29T14:35:27.194Z,15.30
2023-03-29T14:37:53.939Z,15.30
2023-03-29T14:40:21.158Z,15.40
2023-03-29T14:42:48.693Z,15.50
2023-03-29T14:45:16.875Z,15.60
2023-03-29T14:47:44.655Z,15.80
2023-03-29T14:50:28.594Z,16.10
2023-03-29T14:52:56.717Z,16.50
2023-03-29T14:55:27.242Z,16.50
2023-03-29T14:57:54.519Z,16.60
2023-03-29T15:00:41.031Z,16.70
2023-03-29T15:03:13.133Z,16.90
2023-03-29T15:05:41.045Z,16.90
2023-03-29T15:08:10.467Z,16.90
2023-03-29T15:10:38.043Z,16.90
2023-03-29T15:13:06.723Z,16.50
2023-03-29T15:15:35.898Z,16.50
2023-03-29T15:18:04.013Z,16.20
2023-03-29T15:20:34.520Z,16.10
2023-03-29T15:23:04.204Z,16.20
2023-03-29T15:25:35.157Z,16.00
2023-03-29T15:28:02.002Z,16.10
2023-03-29T15:30:32.116Z,16.00
2023-03-29T15:33:08.023Z,16.00
2023-03-29T15:35:34.822Z,15.60
2023-03-29T15:38:03.501Z,15.30
2023-03-29T15:40:30.352Z,15.30
2023-03-29T15:42:57.128Z,15.20
2023-03-29T15:45:23.807Z,15.10
2023-03-29T15:47:50.539Z,15.10
2023-03-29T15:50:17.374Z,15.00
2023-03-29T15:52:44.087Z,14.90
2023-03-29T15:55:11.413Z,14.80
2023-03-29T15:57:39.721Z,14.80
2023-03-29T16:00:08.007Z,14.90
2023-03-29T16:02:35.254Z,15.00
2023-03-29T16:05:04.286Z,15.00
2023-03-29T16:07:31.021Z,15.10
2023-03-29T16:09:57.792Z,15.10
2023-03-29T16:12:25.716Z,15.10
2023-03-29T16:14:52.356Z,15.10
2023-03-29T16:17:19.045Z,15.10
2023-03-29T16:19:45.892Z,15.20
2023-03-29T16:22:12.567Z,15.40
2023-03-29T16:24:42.098Z,15.20
2023-03-29T16:27:08.795Z,15.10
2023-03-29T16:29:35.690Z,15.00
2023-03-29T16:32:04.036Z,14.90
2023-03-29T16:34:32.801Z,14.90
2023-03-29T16:36:59.383Z,14.90
2023-03-29T16:39:26.099Z,14.90
2023-03-29T16:41:52.759Z,14.80
2023-03-29T16:44:23.954Z,14.80
2023-03-29T16:46:52.697Z,14.80
2023-03-29T16:49:19.411Z,14.80
2023-03-29T16:51:49.021Z,14.70
2023-03-29T16:54:17.250Z,14.60
2023-03-29T16:56:44.078Z,14.60
2023-03-29T16:59:11.990Z,14.60
2023-03-29T17:01:40.788Z,14.70
2023-03-29T17:04:07.788Z,14.70
2023-03-29T17:06:34.649Z,14.70
2023-03-29T17:09:01.275Z,14.60
2023-03-29T17:11:28.194Z,14.60
2023-03-29T17:13:55.153Z,14.50
2023-03-29T17:16:21.975Z,14.40
2023-03-29T17:18:48.847Z,14.40
2023-03-29T17:21:15.799Z,14.30
2023-03-29T17:23:42.536Z,14.20
2023-03-29T17:26:09.256Z,14.10
2023-03-29T17:28:36.248Z,14.10
2023-03-29T17:31:03.927Z,14.10
2023-03-29T17:33:31.180Z,14.00
2023-03-29T17:35:57.881Z,13.90
2023-03-29T17:38:26.165Z,13.90
2023-03-29T17:40:53.464Z,13.80
2023-03-29T17:43:20.846Z,13.60
2023-03-29T17:45:53.951Z,13.60
2023-03-29T17:48:21.105Z,13.50
2023-03-29T17:50:47.828Z,13.50
2023-03-29T17:53:14.511Z,13.40
2023-03-29T17:55:41.385Z,13.40
2023-03-29T17:58:08.356Z,13.30
2023-03-29T18:00:35.694Z,13.20
2023-03-29T18:03:02.419Z,13.20
2023-03-29T18:05:29.250Z,13.10
2023-03-29T18:07:56.357Z,13.20
2023-03-29T18:10:24.763Z,13.00
2023-03-29T18:12:51.807Z,12.90
2023-03-29T18:15:18.537Z,12.80
2023-03-29T18:17:48.273Z,12.90
2023-03-29T18:20:16.194Z,12.90
2023-03-29T18:22:46.695Z,12.90
2023-03-29T18:25:14.648Z,12.80
2023-03-29T18:27:41.356Z,12.70
2023-03-29T18:30:08.803Z,12.60
2023-03-29T18:32:36.043Z,12.50
2023-03-29T18:35:03.391Z,12.50
2023-03-29T18:37:30.160Z,12.50
2023-03-29T18:39:58.064Z,12.50
2023-03-29T18:42:25.602Z,12.40
2023-03-29T18:44:54.499Z,12.20
2023-03-29T18:47:21.553Z,12.20
2023-03-29T18:49:48.491Z,12.10
2023-03-29T18:52:15.250Z,12.00
2023-03-29T18:54:44.383Z,11.90
2023-03-29T18:57:11.651Z,11.90
2023-03-29T18:59:38.560Z,11.90
2023-03-29T19:02:05.393Z,11.80
2023-03-29T19:04:35.106Z,11.80
2023-03-29T19:07:02.036Z,11.70
2023-03-29T19:09:29.664Z,11.60
2023-03-29T19:11:56.432Z,11.50
2023-03-29T19:14:26.063Z,11.40
2023-03-29T19:16:53.121Z,11.20
2023-03-29T19:19:21.474Z,11.00
2023-03-29T19:21:48.788Z,10.80
2023-03-29T19:24:16.199Z,10.80
2023-03-29T19:26:44.468Z,10.70
2023-03-29T19:29:14.861Z,10.50
2023-03-29T19:31:41.637Z,10.50
2023-03-29T19:34:11.002Z,10.40
2023-03-29T19:36:38.419Z,10.40
2023-03-29T19:39:05.735Z,10.50
2023-03-29T19:41:32.476Z,10.50
2023-03-29T19:43:59.154Z,10.60
2023-03-29T19:46:27.757Z,10.70
2023-03-29T19:48:56.130Z,10.70
2023-03-29T19:51:23.503Z,10.70
2023-03-29T19:53:50.387Z,10.70
2023-03-29T19:56:19.145Z,10.70
2023-03-29T19:58:48.148Z,10.70
2023-03-29T20:01:20.368Z,10.70
2023-03-29T20:03:48.833Z,10.70
2023-03-29T20:06:16.705Z,10.60
2023-03-29T20:08:43.951Z,10.60
2023-03-29T20:11:11.572Z,10.50
2023-03-29T20:13:39.289Z,10.50
2023-03-29T20:16:06.642Z,10.40
2023-03-29T20:18:33.323Z,10.50
2023-03-29T20:21:01.709Z,10.30
2023-03-29T20:23:31.879Z,10.40
2023-03-29T20:26:01.096Z,10.30
2023-03-29T20:28:27.752Z,10.30
2023-03-29T20:30:54.382Z,10.30
2023-03-29T20:33:21.632Z,10.20
2023-03-29T20:35:49.278Z,10.10
2023-03-29T20:38:16.171Z,10.10
2023-03-29T20:40:42.853Z,10.10
2023-03-29T20:43:18.463Z,10.00
2023-03-29T20:45:52.749Z,10.00
2023-03-29T20:48:23.232Z,10.00
2023-03-29T20:50:51.179Z,9.90
2023-03-29T20:53:18.525Z,9.90
2023-03-29T20:55:45.913Z,9.90
2023-03-29T20:58:12.871Z,9.90
2023-03-29T21:00:40.423Z,9.90
2023-03-29T21:03:08.333Z,9.90
2023-03-29T21:05:35.790Z,9.90
2023-03-29T21:08:04.436Z,9.90
2023-03-29T21:10:31.370Z,9.90
2023-03-29T21:13:02.579Z,9.90
2023-03-29T21:15:31.244Z,10.00
2023-03-29T21:17:58.123Z,10.00
2023-03-29T21:20:24.949Z,10.00
2023-03-29T21:22:51.703Z,10.00
2023-03-29T21:25:18.566Z,10.00
2023-03-29T21:27:45.384Z,10.00
2023-03-29T21:30:12.172Z,10.00
2023-03-29T21:32:39.649Z,9.90
2023-03-29T21:35:06.805Z,9.90
2023-03-29T21:37:33.531Z,10.00
2023-03-29T21:40:00.177Z,10.00
2023-03-29T21:42:26.829Z,10.00
2023-03-29T21:44:53.557Z,10.00
2023-03-29T21:47:20.373Z,10.00
2023-03-29T21:49:47.218Z,9.90
2023-03-29T21:52:14.531Z,10.00
2023-03-29T21:54:41.178Z,10.00
2023-03-29T21:57:08.116Z,10.10
2023-03-29T21:59:34.881Z,10.00
2023-03-29T22:02:01.704Z,10.00
2023-03-29T22:04:36.453Z,10.00
2023-03-29T22:07:03.544Z,9.90
2023-03-29T22:09:33.129Z,9.90
2023-03-29T22:12:01.557Z,9.90
2023-03-29T22:14:31.020Z,9.90
2023-03-29T22:16:57.648Z,9.80
2023-03-29T22:19:24.469Z,9.80
2023-03-29T22:21:51.446Z,9.80
2023-03-29T22:24:18.265Z,9.80
2023-03-29T22:26:45.074Z,9.80
2023-03-29T22:29:14.130Z,9.70
2023-03-29T22:31:40.900Z,9.70
2023-03-29T22:34:07.590Z,9.70
2023-03-29T22:36:36.086Z,9.60
2023-03-29T22:39:02.807Z,9.60
2023-03-29T22:41:29.564Z,9.60
2023-03-29T22:43:57.121Z,9.60
2023-03-29T22:46:24.294Z,9.60
2023-03-29T22:48:51.324Z,9.60
2023-03-29T22:51:18.125Z,9.60
2023-03-29T22:53:47.000Z,9.50
2023-03-29T22:56:14.365Z,9.50
2023-03-29T22:58:41.121Z,9.50
2023-03-29T23:01:08.385Z,9.50
2023-03-29T23:03:35.556Z,9.60
2023-03-29T23:06:02.415Z,9.50
2023-03-29T23:08:30.281Z,9.50
2023-03-29T23:10:57.132Z,9.40
2023-03-29T23:13:28.757Z,9.40
2023-03-29T23:15:56.892Z,9.30
2023-03-29T23:18:23.775Z,9.30
2023-03-29T23:20:51.366Z,9.30
2023-03-29T23:23:19.127Z,9.20
2023-03-29T23:25:47.498Z,9.20
2023-03-29T23:28:15.262Z,9.20
2023-03-29T23:30:41.885Z,9.20
2023-03-29T23:33:10.553Z,9.30
2023-03-29T23:35:37.788Z,9.30
2023-03-29T23:38:05.793Z,9.30
2023-03-29T23:40:33.296Z,9.40
2023-03-29T23:43:00.014Z,9.30
2023-03-29T23:45:27.762Z,9.30
2023-03-29T23:47:54.484Z,9.30
2023-03-29T23:50:23.867Z,9.30
2023-03-29T23:52:51.612Z,9.40
2023-03-29T23:55:18.495Z,9.40
2023-03-29T23:57:47.573Z,9.40
